Haines City, FL (33844)

2:10 AM EDT on May 28, 2015 (GMT -0400)
APRSWXNET | | Change Station
CLOSE
Current Station
Personal Weather Station
Location: Haines City, FL
Elevation: 159 ft
Nearby Weather Stations

Elev 159 ft 28.10 °N, 81.60 °W | Updated 41 minutes ago

Partly Cloudy
Partly Cloudy
72 °F
Feels Like 72 °F
N
1
Wind Variable Wind from ESE
Gusts 3.0 mph

Today
High -- | Low -- °F
--% Chance of Precip.
Yesterday
High -- | Low -- °F
Precip. -- in
6:31 AM 8:16 PM
Waxing Gibbous, 73% visible
Pressure 30.14 in
Visibility 10.0 miles
Clouds Clear
Dew Point 69 °F
Humidity 89%
Rainfall in
Snow Depth Not available.
UV 0 out of 12
Pollen 5.30 out of 12
Air Quality Not available.
Flu Activity Sporadic
METAR KGIF 280553Z AUTO 08006KT 10SM CLR 23/21 A3015 RMK AO2 SLP206 T02330206 10283 20233 58008

More Conditions Fewer Conditions

Pressure 30.14 in
Visibility 10.0 miles
Clouds Clear
Dew Point 69 °F
Humidity 89%
Rainfall in
Snow Depth Not available.
UV 0 out of 12
Pollen 5.30 out of 12
Air Quality Not available.
Flu Activity Sporadic
METAR KGIF 280553Z AUTO 08006KT 10SM CLR 23/21 A3015 RMK AO2 SLP206 T02330206 10283 20233 58008

More Conditions Fewer Conditions

10-Day Weather Forecast

Almanac

Astronomy

May. 28, 2015 Rise Set
Actual Time
Civil Twilight
Nautical Twilight
Astronomical Twilight
Moon
Length of Visible Light
Length of Day
Tomorrow will be .
, % of the Moon is Illuminated

Today's Extremes

State Highs State Lows

Community

WunderPhotos

Upload Photos

1,824,931 photos uploaded!

WunderBlogs® & News

Nearby

Air Quality

  Air Quality AQ Index Pollutant
Not available.

Snow Depth

Station Depth Elevation

Earthquake Activity

City Distance Mag. Time & Date
Minimum magnitude displayed is 2.5.

Coastal Water Temperatures

Place Temperature

Stations

Nearby Weather Stations

Station Location Temp. Windchill Dew Point Humidity Wind Precip. Elev Updated Type